Time;durP1;ratioP1;P1;durP2;ratioP2;P2;SDS_P1;SDS_P2;PMS_P1;PMS_P2;Temp;Humidity;BMP_temperature;BMP_pressure;BME280_temperature;BME280_humidity;BME280_pressure;Samples;Min_cycle;Max_cycle;Signal;HPM_P1;HPM_P2
2022/09/16 00:01:16;;;;;;;7.40;1.15;;;11.40;99.90;;;;;;5036292;28;20186;-81
2022/09/16 00:03:43;;;;;;;7.25;1.30;;;11.40;99.90;;;;;;5018162;28;20131;-81
2022/09/16 00:06:24;;;;;;;8.27;1.40;;;11.40;99.90;;;;;;5016249;28;20049;-81
2022/09/16 00:08:51;;;;;;;6.40;1.38;;;11.40;99.90;;;;;;5015295;28;20045;-81
2022/09/16 00:11:17;;;;;;;7.93;1.50;;;11.40;99.90;;;;;;5032631;28;20052;-81
2022/09/16 00:13:44;;;;;;;7.68;1.33;;;11.40;99.90;;;;;;5015764;28;20120;-81
2022/09/16 00:16:16;;;;;;;6.20;1.35;;;11.50;99.90;;;;;;5015978;28;20057;-82
2022/09/16 00:18:41;;;;;;;6.70;1.55;;;11.50;99.90;;;;;;5002150;28;20041;-82
2022/09/16 00:21:08;;;;;;;6.13;1.30;;;11.50;99.90;;;;;;5015998;28;20037;-81
2022/09/16 00:23:35;;;;;;;7.82;1.30;;;11.60;99.90;;;;;;5014773;28;20037;-82
2022/09/16 00:26:02;;;;;;;5.50;1.23;;;11.50;99.90;;;;;;5011730;28;20160;-82
2022/09/16 00:28:27;;;;;;;6.40;1.40;;;11.50;99.90;;;;;;5019409;28;20548;-81
2022/09/16 00:30:53;;;;;;;4.45;1.30;;;11.50;99.90;;;;;;4998088;28;20046;-82
2022/09/16 00:33:19;;;;;;;6.63;1.50;;;11.60;99.90;;;;;;5015560;28;20524;-81
2022/09/16 00:35:46;;;;;;;6.95;1.33;;;11.60;99.90;;;;;;5015695;28;20122;-81
2022/09/16 00:38:12;;;;;;;8.32;1.40;;;11.60;99.90;;;;;;5014332;28;20037;-81
2022/09/16 00:40:46;;;;;;;6.45;1.50;;;11.70;99.90;;;;;;5016039;28;20489;-81
2022/09/16 00:43:14;;;;;;;6.03;1.50;;;11.70;99.90;;;;;;5014933;28;20074;-81
2022/09/16 00:45:40;;;;;;;6.65;1.50;;;11.70;99.90;;;;;;5015702;28;20054;-81
2022/09/16 00:48:11;;;;;;;7.35;1.40;;;11.70;99.90;;;;;;4999114;28;20039;-81
2022/09/16 00:50:44;;;;;;;9.97;1.80;;;11.70;99.90;;;;;;5015730;28;20042;-81
2022/09/16 00:53:16;;;;;;;6.70;1.50;;;11.70;99.90;;;;;;5013794;28;20041;-81
2022/09/16 00:55:43;;;;;;;5.75;1.50;;;11.70;99.90;;;;;;5015601;28;20041;-81
2022/09/16 00:58:23;;;;;;;8.63;1.48;;;11.70;99.90;;;;;;5015369;28;20492;-81
2022/09/16 01:00:49;;;;;;;5.95;1.45;;;11.70;99.90;;;;;;5028118;28;20121;-81
2022/09/16 01:03:16;;;;;;;9.02;1.65;;;11.70;99.90;;;;;;5015078;28;20037;-81
2022/09/16 01:05:42;;;;;;;7.13;1.60;;;11.80;99.90;;;;;;4998788;28;20045;-81
2022/09/16 01:08:08;;;;;;;10.10;1.60;;;11.70;99.90;;;;;;5014085;28;20045;-82
2022/09/16 01:10:34;;;;;;;6.13;1.40;;;11.80;99.90;;;;;;5015039;28;20040;-82
2022/09/16 01:13:09;;;;;;;7.55;1.65;;;11.80;99.90;;;;;;5012538;28;20045;-82
2022/09/16 01:15:47;;;;;;;4.95;1.30;;;11.80;99.90;;;;;;5014862;28;20067;-82
2022/09/16 01:18:33;;;;;;;9.32;1.70;;;11.80;99.90;;;;;;5012132;28;20048;-81
2022/09/16 01:21:08;;;;;;;7.93;1.50;;;11.90;99.90;;;;;;5030723;28;20041;-81
2022/09/16 01:23:43;;;;;;;6.20;1.33;;;11.80;99.90;;;;;;5013628;28;20080;-82
2022/09/16 01:26:30;;;;;;;5.75;1.20;;;11.80;99.90;;;;;;5029919;28;20046;-82
2022/09/16 01:29:26;;;;;;;7.22;1.23;;;11.80;99.90;;;;;;5020454;28;20033;-81
2022/09/16 01:32:05;;;;;;;8.85;1.48;;;11.80;99.90;;;;;;5021008;28;20056;-82
2022/09/16 01:34:49;;;;;;;6.47;1.10;;;11.70;99.90;;;;;;5008687;28;20033;-82
2022/09/16 01:37:28;;;;;;;5.60;1.15;;;11.70;99.90;;;;;;5019255;28;20040;-81
2022/09/16 01:40:20;;;;;;;6.13;1.30;;;11.70;99.90;;;;;;5035121;28;20045;-81
2022/09/16 01:42:57;;;;;;;6.32;1.35;;;11.70;99.90;;;;;;5015442;28;20043;-82
2022/09/16 01:45:40;;;;;;;8.27;1.35;;;11.60;99.90;;;;;;5026636;28;20049;-81
2022/09/16 01:48:18;;;;;;;6.47;1.40;;;11.70;99.90;;;;;;5034635;28;20045;-82
2022/09/16 01:51:21;;;;;;;8.13;1.40;;;11.70;99.90;;;;;;5020171;28;20132;-79
2022/09/16 01:53:46;;;;;;;;;;;11.70;99.90;;;;;;5005133;28;20045;-82
2022/09/16 01:56:17;;;;;;;5.85;1.20;;;11.70;99.90;;;;;;5014188;28;20386;-82
2022/09/16 01:59:06;;;;;;;7.95;1.30;;;11.70;99.90;;;;;;5014663;28;20034;-82
2022/09/16 02:01:44;;;;;;;5.85;1.13;;;11.70;99.90;;;;;;5032594;28;20048;-81
2022/09/16 02:04:22;;;;;;;6.40;1.40;;;11.70;99.90;;;;;;5028479;28;20535;-82
2022/09/16 02:06:50;;;;;;;7.25;1.30;;;11.70;99.90;;;;;;5013872;28;20053;-81
2022/09/16 02:09:23;;;;;;;5.78;1.20;;;11.70;99.90;;;;;;5022339;28;20044;-82
2022/09/16 02:11:52;;;;;;;7.32;1.30;;;11.70;99.90;;;;;;5022489;28;20042;-82
2022/09/16 02:14:23;;;;;;;8.80;1.45;;;11.70;99.90;;;;;;5018969;28;20112;-82
2022/09/16 02:17:06;;;;;;;6.50;1.33;;;11.70;99.90;;;;;;5034569;28;20062;-82
2022/09/16 02:19:43;;;;;;;6.70;1.38;;;11.70;99.90;;;;;;5018478;28;20124;-81
2022/09/16 02:22:16;;;;;;;7.60;1.40;;;11.60;99.90;;;;;;5016911;28;20045;-81
2022/09/16 02:24:46;;;;;;;6.82;1.33;;;11.60;99.90;;;;;;5018247;28;20045;-83
2022/09/16 02:27:16;;;;;;;9.30;1.50;;;11.60;99.90;;;;;;5019171;28;20488;-82
2022/09/16 02:29:56;;;;;;;6.43;1.20;;;11.50;99.90;;;;;;5026160;28;20116;-82
2022/09/16 02:32:25;;;;;;;5.32;1.15;;;11.50;99.90;;;;;;5017912;28;20049;-82
2022/09/16 02:34:53;;;;;;;6.22;1.33;;;11.50;99.90;;;;;;5029912;28;20140;-82
2022/09/16 02:37:41;;;;;;;11.52;1.52;;;11.50;99.90;;;;;;5016522;28;20037;-82
2022/09/16 02:40:31;;;;;;;6.95;1.30;;;11.40;99.90;;;;;;5018231;28;20053;-82
2022/09/16 02:42:58;;;;;;;6.93;1.42;;;11.40;99.90;;;;;;5014139;28;20054;-81
2022/09/16 02:45:32;;;;;;;7.00;1.52;;;11.40;99.90;;;;;;5016184;28;20041;-82
2022/09/16 02:48:14;;;;;;;5.88;1.20;;;11.40;99.90;;;;;;5017634;28;20045;-82
2022/09/16 02:50:46;;;;;;;6.25;1.30;;;11.40;99.90;;;;;;5018029;28;20401;-81
2022/09/16 02:53:27;;;;;;;5.65;1.20;;;11.30;99.90;;;;;;5042152;28;20103;-81
2022/09/16 02:55:58;;;;;;;5.50;1.30;;;11.30;99.90;;;;;;5021076;28;20504;-81
2022/09/16 02:58:24;;;;;;;7.03;1.45;;;11.30;99.90;;;;;;5041160;28;20123;-81
2022/09/16 03:00:52;;;;;;;6.18;1.60;;;11.30;99.90;;;;;;5038231;28;20049;-81
2022/09/16 03:03:18;;;;;;;9.02;1.60;;;11.30;99.90;;;;;;5034271;28;20041;-81
2022/09/16 03:06:09;;;;;;;6.95;1.42;;;11.30;99.90;;;;;;5045591;28;20382;-82
2022/09/16 03:08:35;;;;;;;7.82;1.30;;;11.30;99.90;;;;;;5040578;28;20037;-80
2022/09/16 03:11:14;;;;;;;9.18;1.60;;;11.30;99.90;;;;;;5023595;28;20140;-81
2022/09/16 03:13:53;;;;;;;8.40;1.63;;;11.30;99.90;;;;;;5024688;28;20042;-81
2022/09/16 03:16:35;;;;;;;6.88;1.40;;;11.40;99.90;;;;;;5027826;28;20053;-81
2022/09/16 03:19:07;;;;;;;6.22;1.65;;;11.40;99.90;;;;;;5023374;28;20045;-81
2022/09/16 03:21:39;;;;;;;;;;;11.40;99.90;;;;;;5024432;28;20045;-79
2022/09/16 03:24:26;;;;;;;8.82;1.50;;;11.40;99.90;;;;;;5024345;28;19924;-81
2022/09/16 03:27:12;;;;;;;8.20;1.60;;;11.40;99.90;;;;;;5031569;28;20503;-81
2022/09/16 03:30:20;;;;;;;8.82;1.60;;;11.40;99.90;;;;;;5023206;28;20060;-81
2022/09/16 03:32:56;;;;;;;6.00;1.60;;;11.40;99.90;;;;;;4975385;28;20043;-81
2022/09/16 03:35:28;;;;;;;8.50;1.70;;;11.40;99.90;;;;;;4969050;28;20042;-82
2022/09/16 03:37:58;;;;;;;7.38;1.58;;;11.40;99.90;;;;;;4994659;28;20493;-81
2022/09/16 03:40:25;;;;;;;6.97;1.42;;;11.40;99.90;;;;;;5041560;28;20105;-81
2022/09/16 03:42:51;;;;;;;7.53;1.38;;;11.40;99.90;;;;;;5025320;28;20124;-82
2022/09/16 03:45:21;;;;;;;8.30;1.50;;;11.40;99.90;;;;;;5023242;28;20065;-81
2022/09/16 03:47:49;;;;;;;6.35;1.30;;;11.50;99.90;;;;;;5017342;28;20045;-81
2022/09/16 03:50:15;;;;;;;5.90;1.40;;;11.40;99.90;;;;;;5033444;28;20029;-81
2022/09/16 03:52:41;;;;;;;8.63;1.45;;;11.40;99.90;;;;;;5029266;28;20037;-82
2022/09/16 03:55:09;;;;;;;6.93;1.33;;;11.40;99.90;;;;;;5022686;28;20088;-82
2022/09/16 03:57:35;;;;;;;5.97;1.45;;;11.40;99.90;;;;;;5023947;28;20048;-82
2022/09/16 04:00:03;;;;;;;7.20;1.40;;;11.40;99.90;;;;;;5005224;28;20056;-82
2022/09/16 04:02:29;;;;;;;7.40;1.40;;;11.40;99.90;;;;;;5022124;28;20155;-82
2022/09/16 04:04:54;;;;;;;9.80;1.60;;;11.30;99.90;;;;;;5013199;28;20073;-81
2022/09/16 04:07:20;;;;;;;6.22;1.20;;;11.30;99.90;;;;;;5015088;28;20515;-82
2022/09/16 04:09:46;;;;;;;7.28;1.50;;;11.30;99.90;;;;;;5016570;28;20136;-82
2022/09/16 04:12:12;;;;;;;8.57;1.42;;;11.20;99.90;;;;;;5015863;28;20042;-82
2022/09/16 04:14:41;;;;;;;6.30;1.15;;;11.20;99.90;;;;;;5002256;28;20099;-81
2022/09/16 04:17:06;;;;;;;7.85;1.30;;;11.10;99.90;;;;;;5017245;28;20041;-81
2022/09/16 04:19:32;;;;;;;6.53;1.40;;;11.00;99.90;;;;;;5026310;28;20083;-82
2022/09/16 04:21:58;;;;;;;6.43;1.20;;;11.10;99.90;;;;;;5014970;28;20097;-81
2022/09/16 04:24:24;;;;;;;8.88;1.55;;;11.00;99.90;;;;;;4999348;28;20041;-81
2022/09/16 04:26:49;;;;;;;8.00;1.20;;;11.00;99.90;;;;;;5006665;28;20064;-81
2022/09/16 04:29:16;;;;;;;6.97;1.30;;;10.90;99.90;;;;;;5015832;28;20046;-81
2022/09/16 04:31:42;;;;;;;9.40;1.50;;;10.90;99.90;;;;;;5008921;28;20033;-81
2022/09/16 04:34:10;;;;;;;7.93;1.25;;;10.90;99.90;;;;;;5005015;28;20039;-81
2022/09/16 04:36:36;;;;;;;6.57;1.30;;;10.90;99.90;;;;;;5027632;28;20036;-81
2022/09/16 04:39:02;;;;;;;7.43;1.40;;;10.90;99.90;;;;;;5018911;28;20044;-81
2022/09/16 04:41:28;;;;;;;7.13;1.30;;;10.90;99.90;;;;;;5020563;28;20045;-81
2022/09/16 04:43:59;;;;;;;7.18;1.40;;;10.90;99.90;;;;;;5025221;28;20102;-81
2022/09/16 04:46:26;;;;;;;8.05;1.17;;;10.90;99.90;;;;;;5024303;28;20045;-81
2022/09/16 04:48:53;;;;;;;4.82;1.10;;;10.90;99.90;;;;;;5026824;28;20514;-81
2022/09/16 04:51:21;;;;;;;6.15;1.30;;;10.90;99.90;;;;;;5030954;28;20041;-81
2022/09/16 04:53:47;;;;;;;6.50;1.30;;;10.90;99.90;;;;;;5016443;28;20429;-81
2022/09/16 04:56:14;;;;;;;9.20;1.50;;;10.90;99.90;;;;;;5021017;28;20033;-81
2022/09/16 04:58:45;;;;;;;5.57;1.20;;;10.90;99.90;;;;;;5028320;28;20041;-82
2022/09/16 05:01:13;;;;;;;7.35;1.50;;;10.80;99.90;;;;;;5019495;28;20060;-80
2022/09/16 05:03:47;;;;;;;8.15;1.40;;;10.80;99.90;;;;;;5029532;28;20037;-81
2022/09/16 05:06:19;;;;;;;6.22;1.40;;;10.80;99.90;;;;;;5018944;28;20041;-81
2022/09/16 05:08:45;;;;;;;5.60;1.10;;;10.80;99.90;;;;;;5028731;28;20044;-82
2022/09/16 05:11:14;;;;;;;6.65;1.25;;;10.80;99.90;;;;;;5017507;28;20051;-81
2022/09/16 05:13:40;;;;;;;7.25;1.25;;;10.70;99.90;;;;;;5030575;28;20073;-81
2022/09/16 05:16:09;;;;;;;7.10;1.50;;;10.70;99.90;;;;;;5009699;28;20053;-81
2022/09/16 05:18:36;;;;;;;7.65;1.40;;;10.70;99.90;;;;;;5011519;28;20557;-81
2022/09/16 05:21:05;;;;;;;10.27;1.80;;;10.70;99.90;;;;;;5009164;28;20034;-81
2022/09/16 05:23:32;;;;;;;10.07;1.58;;;10.70;99.90;;;;;;5002697;28;20550;-81
2022/09/16 05:26:04;;;;;;;9.00;1.50;;;10.70;99.90;;;;;;4994956;28;20046;-81
2022/09/16 05:28:30;;;;;;;6.88;1.40;;;10.70;99.90;;;;;;4994711;28;20129;-81
2022/09/16 05:31:27;;;;;;;8.52;1.60;;;10.60;99.90;;;;;;4995519;28;20037;-81
2022/09/16 05:33:56;;;;;;;8.57;1.67;;;10.60;99.90;;;;;;5011461;28;20050;-82
2022/09/16 05:36:23;;;;;;;8.48;1.65;;;10.60;99.90;;;;;;5011215;28;20034;-81
2022/09/16 05:38:49;;;;;;;7.78;1.58;;;10.60;99.90;;;;;;4978081;28;20038;-82
2022/09/16 05:41:14;;;;;;;10.13;1.67;;;10.60;99.90;;;;;;4995569;28;20034;-82
2022/09/16 05:43:40;;;;;;;6.32;1.50;;;10.60;99.90;;;;;;4994573;28;20033;-81
2022/09/16 05:46:06;;;;;;;8.90;1.40;;;10.70;99.90;;;;;;4995433;28;20076;-82
2022/09/16 05:48:33;;;;;;;9.23;1.60;;;10.60;99.90;;;;;;4995207;28;20386;-81
2022/09/16 05:51:01;;;;;;;7.03;1.48;;;10.60;99.90;;;;;;5012693;28;20038;-81
2022/09/16 05:53:29;;;;;;;6.95;1.48;;;10.70;99.90;;;;;;4997741;28;20515;-81
2022/09/16 05:55:55;;;;;;;9.93;1.77;;;10.70;99.90;;;;;;4997603;28;20504;-81
2022/09/16 05:58:22;;;;;;;7.53;1.40;;;10.70;99.90;;;;;;4988425;28;20038;-81
2022/09/16 06:00:48;;;;;;;6.82;1.50;;;10.80;99.90;;;;;;4997340;28;20173;-81
2022/09/16 06:03:14;;;;;;;7.10;1.40;;;10.80;99.90;;;;;;4998468;28;20062;-81
2022/09/16 06:05:40;;;;;;;7.57;1.63;;;10.80;99.90;;;;;;4981529;28;20533;-81
2022/09/16 06:08:05;;;;;;;6.57;1.35;;;10.80;99.90;;;;;;4999176;28;20045;-81
2022/09/16 06:10:35;;;;;;;9.68;1.63;;;10.90;99.90;;;;;;4990774;28;20465;-81
2022/09/16 06:13:01;;;;;;;9.50;1.90;;;10.90;99.90;;;;;;4996125;28;20050;-81
2022/09/16 06:15:27;;;;;;;6.22;1.60;;;11.00;99.90;;;;;;5002478;28;20056;-81
2022/09/16 06:17:53;;;;;;;8.20;1.70;;;11.10;99.90;;;;;;5017882;28;20033;-81
2022/09/16 06:20:19;;;;;;;7.97;1.88;;;11.30;99.90;;;;;;5017820;28;20091;-81
2022/09/16 06:22:45;;;;;;;7.28;1.50;;;11.50;99.90;;;;;;5000780;28;20068;-81
2022/09/16 06:25:10;;;;;;;7.93;1.80;;;11.60;99.90;;;;;;5020089;28;20119;-82
2022/09/16 06:27:36;;;;;;;6.93;1.83;;;11.70;99.90;;;;;;5023517;28;20070;-79
2022/09/16 06:30:02;;;;;;;11.70;1.88;;;11.70;99.90;;;;;;5018333;28;20041;-80
2022/09/16 06:32:32;;;;;;;9.60;2.00;;;11.70;99.90;;;;;;5017852;28;20045;-82
2022/09/16 06:34:58;;;;;;;9.55;1.80;;;11.70;99.90;;;;;;5018248;28;20480;-82
2022/09/16 06:37:24;;;;;;;8.30;1.80;;;11.60;99.90;;;;;;5017178;28;20034;-81
2022/09/16 06:39:50;;;;;;;9.98;1.75;;;11.60;99.90;;;;;;5017730;28;20226;-82
2022/09/16 06:42:16;;;;;;;8.93;1.80;;;11.60;99.90;;;;;;5016959;28;20128;-81
2022/09/16 06:44:42;;;;;;;13.35;1.88;;;11.60;99.90;;;;;;5002428;28;20508;-81
2022/09/16 06:47:08;;;;;;;8.10;1.85;;;11.70;99.90;;;;;;5003809;28;20033;-83
2022/09/16 06:49:33;;;;;;;8.60;1.70;;;11.70;99.90;;;;;;5041661;28;20038;-79
2022/09/16 06:51:59;;;;;;;8.45;1.80;;;11.70;99.90;;;;;;4984234;28;20037;-79
2022/09/16 06:54:25;;;;;;;7.25;1.70;;;11.70;99.90;;;;;;4999869;28;20092;-79
2022/09/16 06:56:50;;;;;;;9.93;2.00;;;12.10;99.90;;;;;;5017728;28;20038;-80
2022/09/16 06:59:16;;;;;;;10.05;1.63;;;12.40;99.90;;;;;;5014602;28;20041;-80
2022/09/16 07:01:42;;;;;;;10.13;1.60;;;13.00;99.90;;;;;;5016171;28;20045;-81
2022/09/16 07:04:09;;;;;;;9.35;1.63;;;13.30;99.90;;;;;;5016630;28;20120;-83
2022/09/16 07:06:36;;;;;;;12.40;1.65;;;13.80;99.90;;;;;;5016529;28;20120;-82
2022/09/16 07:09:02;;;;;;;8.60;1.60;;;14.10;99.90;;;;;;5017311;28;20485;-82
2022/09/16 07:11:28;;;;;;;8.60;1.38;;;14.30;99.90;;;;;;5017190;28;20048;-82
2022/09/16 07:13:54;;;;;;;8.52;1.60;;;14.40;99.90;;;;;;5016183;28;20037;-82
2022/09/16 07:16:24;;;;;;;9.57;1.30;;;14.70;99.90;;;;;;5015647;28;20057;-81
2022/09/16 07:18:55;;;;;;;12.77;1.63;;;14.90;99.90;;;;;;5029632;28;20531;-80
2022/09/16 07:21:24;;;;;;;6.68;1.40;;;14.90;99.90;;;;;;5014901;28;20060;-79
2022/09/16 07:23:53;;;;;;;8.90;1.65;;;15.10;99.90;;;;;;5014479;28;20041;-81
2022/09/16 07:26:22;;;;;;;10.73;1.98;;;15.50;99.90;;;;;;5015548;28;20171;-81
2022/09/16 07:28:49;;;;;;;7.20;1.48;;;15.70;99.90;;;;;;5015018;28;20069;-81
2022/09/16 07:31:20;;;;;;;9.93;1.88;;;15.70;99.90;;;;;;4997549;28;20429;-81
2022/09/16 07:33:48;;;;;;;10.70;1.80;;;15.50;99.90;;;;;;5015143;28;21131;-80
2022/09/16 07:36:18;;;;;;;11.27;1.85;;;15.50;99.90;;;;;;5015583;28;20113;-80
2022/09/16 07:38:43;;;;;;;10.68;1.80;;;15.50;99.90;;;;;;5015378;28;20065;-83
2022/09/16 07:41:21;;;;;;;11.32;1.80;;;15.40;99.90;;;;;;4995679;28;20079;-82
2022/09/16 07:43:48;;;;;;;10.50;1.92;;;15.20;99.90;;;;;;5012196;28;20049;-81
2022/09/16 07:46:15;;;;;;;9.88;1.60;;;15.10;99.90;;;;;;4999276;28;20120;-81
2022/09/16 07:48:41;;;;;;;9.18;1.80;;;15.00;99.90;;;;;;5014508;28;20073;-81
2022/09/16 07:51:09;;;;;;;10.02;2.00;;;14.80;99.90;;;;;;5028092;28;20038;-81
2022/09/16 07:53:35;;;;;;;10.48;1.95;;;14.60;99.90;;;;;;5009826;28;20577;-79
2022/09/16 07:56:06;;;;;;;9.82;1.77;;;14.50;99.90;;;;;;5014122;28;20083;-81
2022/09/16 07:58:32;;;;;;;9.37;1.73;;;14.40;99.90;;;;;;5011865;28;20110;-81
2022/09/16 08:00:58;;;;;;;13.20;1.92;;;14.40;99.90;;;;;;5004883;28;20124;-79
2022/09/16 08:03:24;;;;;;;12.00;2.10;;;14.30;99.90;;;;;;5010980;28;20071;-79
2022/09/16 08:05:50;;;;;;;12.57;2.00;;;14.30;99.90;;;;;;5015800;28;20045;-79
2022/09/16 08:08:17;;;;;;;9.98;1.70;;;14.30;99.90;;;;;;4997081;28;20282;-80
2022/09/16 08:10:43;;;;;;;9.90;1.70;;;14.40;99.90;;;;;;5013506;28;20397;-79
2022/09/16 08:13:09;;;;;;;10.15;1.95;;;14.40;99.90;;;;;;5012301;28;20041;-79
2022/09/16 08:15:35;;;;;;;11.43;2.05;;;14.30;99.90;;;;;;4993301;28;20489;-78
2022/09/16 08:18:01;;;;;;;10.68;1.80;;;14.40;99.90;;;;;;4989625;28;20041;-79
2022/09/16 08:20:27;;;;;;;11.57;1.90;;;14.40;99.90;;;;;;4985617;28;20034;-79
2022/09/16 08:22:53;;;;;;;11.38;2.00;;;14.50;99.90;;;;;;4999564;28;20041;-78
2022/09/16 08:25:19;;;;;;;12.35;1.92;;;14.50;99.90;;;;;;5005010;28;20037;-79
2022/09/16 08:27:45;;;;;;;15.52;2.25;;;14.60;99.90;;;;;;4981253;28;20044;-79
2022/09/16 08:30:11;;;;;;;9.40;1.90;;;14.80;99.90;;;;;;5013593;28;20125;-79
2022/09/16 08:32:37;;;;;;;8.32;1.88;;;15.10;99.90;;;;;;4998107;28;20527;-79
2022/09/16 08:35:03;;;;;;;11.20;1.80;;;15.30;99.90;;;;;;5008574;28;20041;-79
2022/09/16 08:37:28;;;;;;;11.77;2.05;;;15.40;99.90;;;;;;4986269;28;20041;-79
2022/09/16 08:39:54;;;;;;;11.73;1.90;;;15.40;99.90;;;;;;4994094;28;20045;-79
2022/09/16 08:42:25;;;;;;;10.55;2.08;;;15.40;99.90;;;;;;4987026;28;20046;-78
2022/09/16 08:45:19;;;;;;;8.38;1.90;;;15.60;99.90;;;;;;4981829;28;20038;-79
2022/09/16 08:48:01;;;;;;;11.68;2.20;;;15.80;99.90;;;;;;4996587;28;20038;-80
2022/09/16 08:50:36;;;;;;;10.75;1.88;;;16.10;99.90;;;;;;5004165;28;20037;-78
2022/09/16 08:53:10;;;;;;;11.45;1.98;;;16.30;99.90;;;;;;4998082;28;20524;-79
2022/09/16 08:55:45;;;;;;;10.50;2.10;;;16.40;99.90;;;;;;5005613;28;20030;-80
2022/09/16 08:58:16;;;;;;;12.45;2.03;;;16.40;99.90;;;;;;5003618;28;20047;-79
2022/09/16 09:00:44;;;;;;;15.18;2.38;;;16.40;99.90;;;;;;5002948;28;20501;-79
2022/09/16 09:03:34;;;;;;;10.02;2.15;;;16.40;99.90;;;;;;5002514;28;20049;-79
2022/09/16 09:06:05;;;;;;;10.75;2.33;;;16.40;99.90;;;;;;4987405;28;20099;-79
2022/09/16 09:09:04;;;;;;;10.82;2.15;;;16.40;99.90;;;;;;5004891;28;20175;-81
2022/09/16 09:11:33;;;;;;;12.30;2.60;;;16.20;99.90;;;;;;4981245;28;20097;-81
2022/09/16 09:14:28;;;;;;;14.57;2.55;;;16.10;99.90;;;;;;5015041;28;20041;-87
2022/09/16 09:17:22;;;;;;;11.00;2.40;;;16.20;99.90;;;;;;4986833;28;20497;-86
2022/09/16 09:20:10;;;;;;;11.82;2.28;;;16.40;99.90;;;;;;4977032;28;20501;-88
2022/09/16 09:22:55;;;;;;;12.50;2.53;;;16.60;99.20;;;;;;5002749;28;20045;-84
2022/09/16 09:25:31;;;;;;;12.30;2.28;;;16.70;99.50;;;;;;4987361;28;20132;-81
2022/09/16 09:28:16;;;;;;;11.85;2.45;;;16.60;97.90;;;;;;4996622;28;20071;-81
2022/09/16 09:30:52;;;;;;;11.55;2.60;;;16.50;98.60;;;;;;4983034;28;20496;-81
2022/09/16 09:33:29;;;;;;;12.60;2.50;;;16.60;98.10;;;;;;4980836;28;20121;-82
2022/09/16 09:36:10;;;;;;;11.63;2.10;;;16.70;97.80;;;;;;4999744;28;20034;-81
2022/09/16 09:38:47;;;;;;;11.30;2.15;;;16.90;96.30;;;;;;4992179;28;20046;-81
2022/09/16 09:41:44;;;;;;;9.68;1.85;;;17.20;97.20;;;;;;4994785;28;20046;-81
2022/09/16 09:44:28;;;;;;;9.32;1.85;;;17.30;94.60;;;;;;4976494;28;20100;-81
2022/09/16 09:46:59;;;;;;;10.30;1.95;;;17.40;94.50;;;;;;4978090;28;20077;-82
2022/09/16 09:49:42;;;;;;;8.82;2.13;;;17.50;92.30;;;;;;4991502;28;20042;-81
2022/09/16 09:52:30;;;;;;;10.38;1.75;;;17.40;91.10;;;;;;5009794;28;20037;-81
2022/09/16 09:55:09;;;;;;;11.77;2.03;;;17.40;91.50;;;;;;4995819;28;20122;-81
2022/09/16 09:57:42;;;;;;;10.75;1.90;;;17.50;91.30;;;;;;4990376;28;20046;-80
2022/09/16 10:00:15;;;;;;;9.80;1.90;;;17.60;92.20;;;;;;4993490;28;20038;-81
2022/09/16 10:02:43;;;;;;;10.48;1.80;;;17.80;90.10;;;;;;4991475;28;20049;-81
2022/09/16 10:05:21;;;;;;;8.60;1.75;;;17.80;87.10;;;;;;4993106;28;20056;-81
2022/09/16 10:07:48;;;;;;;11.25;2.08;;;17.80;88.90;;;;;;4975201;28;20088;-81
2022/09/16 10:10:20;;;;;;;10.27;2.08;;;17.80;88.10;;;;;;4975594;28;20045;-81
2022/09/16 10:12:46;;;;;;;10.52;2.08;;;17.90;87.80;;;;;;4992880;28;20069;-81
2022/09/16 10:15:26;;;;;;;11.48;2.00;;;17.90;84.20;;;;;;4979480;28;20050;-81
2022/09/16 10:17:53;;;;;;;8.98;2.00;;;18.00;86.90;;;;;;4992231;28;20054;-81
2022/09/16 10:20:32;;;;;;;8.48;1.70;;;17.90;88.30;;;;;;4980212;28;20481;-81
2022/09/16 10:23:04;;;;;;;10.38;1.98;;;18.00;84.60;;;;;;4995261;28;20045;-81
2022/09/16 10:25:32;;;;;;;11.18;2.20;;;18.10;86.30;;;;;;4995636;28;20042;-81
2022/09/16 10:28:04;;;;;;;9.48;1.67;;;18.20;86.60;;;;;;5004192;28;20572;-81
2022/09/16 10:30:52;;;;;;;10.60;1.80;;;18.30;84.50;;;;;;4999392;28;20493;-81
2022/09/16 10:33:33;;;;;;;8.98;1.60;;;18.40;81.00;;;;;;5004922;28;20054;-81
2022/09/16 10:36:07;;;;;;;8.73;1.80;;;18.50;80.10;;;;;;5001786;28;20508;-81
2022/09/16 10:38:39;;;;;;;8.90;1.80;;;18.30;78.30;;;;;;4978377;28;20041;-80
2022/09/16 10:41:08;;;;;;;8.35;2.00;;;18.30;80.60;;;;;;4980419;28;20104;-81
2022/09/16 10:43:37;;;;;;;8.10;1.95;;;18.10;80.10;;;;;;5000754;28;20040;-80
2022/09/16 10:46:04;;;;;;;9.15;1.83;;;18.00;77.80;;;;;;5002335;28;20069;-81
2022/09/16 10:48:31;;;;;;;9.25;2.05;;;18.00;79.30;;;;;;4992559;28;20066;-81
2022/09/16 10:51:03;;;;;;;10.60;1.95;;;17.90;80.70;;;;;;4985910;28;20085;-81
2022/09/16 10:53:35;;;;;;;10.63;1.90;;;18.00;83.00;;;;;;4984392;28;20033;-81
2022/09/16 10:56:04;;;;;;;8.77;2.05;;;18.20;81.40;;;;;;5002631;28;20030;-81
2022/09/16 10:58:30;;;;;;;11.82;2.00;;;18.30;80.30;;;;;;5000181;28;20042;-81
2022/09/16 11:01:05;;;;;;;9.48;1.75;;;18.30;82.20;;;;;;4950808;28;20600;-81
2022/09/16 11:04:04;;;;;;;9.30;2.20;;;18.20;83.40;;;;;;4988439;28;20481;-80
2022/09/16 11:06:56;;;;;;;8.68;1.80;;;18.20;82.70;;;;;;4998048;28;20540;-81
2022/09/16 11:10:04;;;;;;;9.35;1.95;;;18.40;83.00;;;;;;5000641;28;20041;-81
2022/09/16 11:12:45;;;;;;;9.90;1.90;;;18.60;84.30;;;;;;4974454;28;20131;-81
2022/09/16 11:15:41;;;;;;;13.40;2.40;;;18.80;83.10;;;;;;5018920;28;20053;-81
2022/09/16 11:18:30;;;;;;;9.50;1.80;;;18.90;83.00;;;;;;5014937;28;20505;-81
2022/09/16 11:21:19;;;;;;;11.77;2.20;;;18.90;83.90;;;;;;5008536;28;20570;-81
2022/09/16 11:23:51;;;;;;;11.43;1.92;;;19.10;85.10;;;;;;5013431;28;20041;-81
2022/09/16 11:26:23;;;;;;;9.25;1.95;;;19.20;80.70;;;;;;5008631;28;20091;-81
2022/09/16 11:28:54;;;;;;;9.38;1.63;;;19.10;82.50;;;;;;5005119;28;20052;-81
2022/09/16 11:31:20;;;;;;;10.43;1.90;;;19.20;80.20;;;;;;5016720;28;20503;-81
2022/09/16 11:34:11;;;;;;;12.02;1.92;;;19.00;77.00;;;;;;5016520;28;20048;-81
2022/09/16 11:37:05;;;;;;;8.18;1.90;;;18.50;78.30;;;;;;4987993;28;20041;-81
2022/09/16 11:39:46;;;;;;;10.65;1.65;;;18.30;79.70;;;;;;5011243;28;20175;-81
2022/09/16 11:42:12;;;;;;;9.27;1.63;;;18.20;80.00;;;;;;5013877;28;20041;-81
2022/09/16 11:44:46;;;;;;;9.27;1.70;;;18.20;79.80;;;;;;5003024;28;20404;-81
2022/09/16 11:47:29;;;;;;;8.68;2.00;;;18.20;81.10;;;;;;5000760;28;20041;-81
2022/09/16 11:50:01;;;;;;;9.15;1.65;;;18.20;81.20;;;;;;5001726;28;20574;-81
2022/09/16 11:52:49;;;;;;;7.93;1.70;;;18.20;76.70;;;;;;5020114;28;20042;-80
2022/09/16 11:55:21;;;;;;;9.40;2.00;;;18.30;77.10;;;;;;4996103;28;20073;-81
2022/09/16 11:57:58;;;;;;;8.43;1.75;;;18.40;79.10;;;;;;5018752;28;20033;-81
2022/09/16 12:00:24;;;;;;;8.07;1.58;;;18.50;74.30;;;;;;5019780;28;20041;-81
2022/09/16 12:03:24;;;;;;;11.02;2.00;;;18.60;73.50;;;;;;5020386;28;20056;-82
2022/09/16 12:06:02;;;;;;;9.98;1.75;;;18.80;73.50;;;;;;5008084;28;20049;-81
2022/09/16 12:09:05;;;;;;;8.50;1.83;;;18.70;75.30;;;;;;5017024;28;20107;-81
2022/09/16 12:11:35;;;;;;;8.68;1.80;;;18.70;76.10;;;;;;4995717;28;20057;-81
2022/09/16 12:14:16;;;;;;;7.93;1.50;;;18.70;75.10;;;;;;5001759;28;20045;-81
2022/09/16 12:16:48;;;;;;;5.60;1.30;;;18.50;75.60;;;;;;5005482;28;20050;-81
2022/09/16 12:19:42;;;;;;;7.13;1.48;;;18.40;75.50;;;;;;4997341;28;20098;-81
2022/09/16 12:22:26;;;;;;;8.18;1.50;;;18.30;74.80;;;;;;4990899;28;20104;-81
2022/09/16 12:25:02;;;;;;;7.25;1.50;;;18.30;76.20;;;;;;5013799;28;20053;-81
2022/09/16 12:27:46;;;;;;;10.45;1.65;;;18.20;76.40;;;;;;5004366;28;20049;-81
2022/09/16 12:30:18;;;;;;;5.35;1.35;;;18.30;77.80;;;;;;5001468;28;20041;-81
2022/09/16 12:33:09;;;;;;;8.30;1.70;;;18.40;78.80;;;;;;4996647;28;20129;-81
2022/09/16 12:36:08;;;;;;;10.43;1.80;;;18.10;77.80;;;;;;5000050;28;20540;-81
2022/09/16 12:38:34;;;;;;;8.60;1.65;;;18.10;81.40;;;;;;4996569;28;20513;-81
2022/09/16 12:41:18;;;;;;;8.55;1.67;;;18.00;80.20;;;;;;4997728;28;20124;-81
2022/09/16 12:44:05;;;;;;;8.63;1.83;;;18.00;79.00;;;;;;4991997;28;20042;-81
2022/09/16 12:47:07;;;;;;;8.65;1.90;;;18.00;78.80;;;;;;4997259;28;20056;-81
2022/09/16 12:49:36;;;;;;;12.98;1.80;;;18.20;79.20;;;;;;4993425;28;20056;-81
2022/09/16 12:52:23;;;;;;;8.75;1.77;;;18.30;77.50;;;;;;4997040;28;20609;-81
2022/09/16 12:55:27;;;;;;;12.23;2.20;;;18.30;76.20;;;;;;5014393;28;20049;-81
2022/09/16 12:58:16;;;;;;;9.32;1.80;;;18.30;77.90;;;;;;4995835;28;20045;-82
2022/09/16 13:01:21;;;;;;;7.85;1.83;;;18.40;78.40;;;;;;5006158;28;20049;-81
2022/09/16 13:03:55;;;;;;;8.65;1.45;;;18.40;78.80;;;;;;4975908;28;20054;-81
2022/09/16 13:06:32;;;;;;;10.23;2.40;;;18.50;80.60;;;;;;4996500;28;20046;-81
2022/09/16 13:09:17;;;;;;;12.68;2.00;;;18.40;78.10;;;;;;4996805;28;20104;-82
2022/09/16 13:12:14;;;;;;;10.73;1.88;;;18.10;78.60;;;;;;4990762;28;20221;-81
2022/09/16 13:14:48;;;;;;;11.00;2.38;;;17.80;77.60;;;;;;4977907;28;20065;-80
2022/09/16 13:17:31;;;;;;;11.65;2.40;;;17.50;79.00;;;;;;5018417;28;20420;-81